sensor_id;sensor_type;location;lat;lon;timestamp;pressure;altitude;pressure_sealevel;temperature;humidity
33151;BME280;19508;42.578;23.416;2024-03-02T00:00:57;93147.53;;;8.68;91.72
33151;BME280;19508;42.578;23.416;2024-03-02T00:03:22;93139.59;;;8.84;91.30
33151;BME280;19508;42.578;23.416;2024-03-02T00:05:49;93144.09;;;8.73;91.52
33151;BME280;19508;42.578;23.416;2024-03-02T00:08:22;93139.13;;;8.97;90.51
33151;BME280;19508;42.578;23.416;2024-03-02T00:10:47;93140.25;;;9.01;90.17
33151;BME280;19508;42.578;23.416;2024-03-02T00:13:13;93129.94;;;8.88;90.46
33151;BME280;19508;42.578;23.416;2024-03-02T00:18:04;93136.38;;;8.87;90.02
33151;BME280;19508;42.578;23.416;2024-03-02T00:20:30;93112.84;;;8.57;91.26
33151;BME280;19508;42.578;23.416;2024-03-02T00:23:04;93122.31;;;8.69;91.18
33151;BME280;19508;42.578;23.416;2024-03-02T00:25:53;93118.06;;;8.73;91.45
33151;BME280;19508;42.578;23.416;2024-03-02T00:28:27;93111.97;;;8.46;92.99
33151;BME280;19508;42.578;23.416;2024-03-02T00:33:41;93118.59;;;8.75;92.67
33151;BME280;19508;42.578;23.416;2024-03-02T00:36:07;93107.94;;;8.86;91.53
33151;BME280;19508;42.578;23.416;2024-03-02T00:38:34;93118.72;;;8.96;91.05
33151;BME280;19508;42.578;23.416;2024-03-02T00:41:04;93115.50;;;8.94;90.34
33151;BME280;19508;42.578;23.416;2024-03-02T00:43:50;93106.41;;;9.00;90.64
33151;BME280;19508;42.578;23.416;2024-03-02T00:46:18;93111.53;;;9.07;90.57
33151;BME280;19508;42.578;23.416;2024-03-02T00:48:55;93109.09;;;9.05;90.18
33151;BME280;19508;42.578;23.416;2024-03-02T00:51:22;93101.84;;;9.05;89.49
33151;BME280;19508;42.578;23.416;2024-03-02T00:53:49;93097.50;;;8.94;90.52
33151;BME280;19508;42.578;23.416;2024-03-02T00:56:16;93096.59;;;8.79;91.26
33151;BME280;19508;42.578;23.416;2024-03-02T00:58:41;93084.25;;;8.72;90.60
33151;BME280;19508;42.578;23.416;2024-03-02T01:01:10;93091.50;;;8.77;90.63
33151;BME280;19508;42.578;23.416;2024-03-02T01:03:35;93098.22;;;8.74;90.24
33151;BME280;19508;42.578;23.416;2024-03-02T01:06:02;93093.69;;;8.85;89.97
33151;BME280;19508;42.578;23.416;2024-03-02T01:08:28;93090.97;;;8.75;89.88
33151;BME280;19508;42.578;23.416;2024-03-02T01:10:54;93092.03;;;8.74;90.65
33151;BME280;19508;42.578;23.416;2024-03-02T01:13:21;93092.41;;;8.93;89.64
33151;BME280;19508;42.578;23.416;2024-03-02T01:15:46;93085.91;;;8.84;90.50
33151;BME280;19508;42.578;23.416;2024-03-02T01:18:12;93088.19;;;9.07;89.66
33151;BME280;19508;42.578;23.416;2024-03-02T01:20:37;93093.06;;;9.15;89.35
33151;BME280;19508;42.578;23.416;2024-03-02T01:23:03;93077.97;;;9.09;89.38
33151;BME280;19508;42.578;23.416;2024-03-02T01:25:28;93076.91;;;9.10;89.72
33151;BME280;19508;42.578;23.416;2024-03-02T01:27:54;93077.94;;;8.99;90.32
33151;BME280;19508;42.578;23.416;2024-03-02T01:30:19;93063.94;;;8.97;90.35
33151;BME280;19508;42.578;23.416;2024-03-02T01:32:44;93076.38;;;9.13;89.70
33151;BME280;19508;42.578;23.416;2024-03-02T01:35:10;93080.13;;;9.12;90.08
33151;BME280;19508;42.578;23.416;2024-03-02T01:37:36;93071.31;;;9.17;89.58
33151;BME280;19508;42.578;23.416;2024-03-02T01:40:01;93074.75;;;9.07;90.26
33151;BME280;19508;42.578;23.416;2024-03-02T01:42:28;93048.63;;;8.92;91.14
33151;BME280;19508;42.578;23.416;2024-03-02T01:44:56;93056.66;;;8.82;91.12
33151;BME280;19508;42.578;23.416;2024-03-02T01:47:21;93054.28;;;8.91;90.75
33151;BME280;19508;42.578;23.416;2024-03-02T01:49:47;93060.50;;;9.01;90.78
33151;BME280;19508;42.578;23.416;2024-03-02T01:52:12;93055.16;;;9.07;89.68
33151;BME280;19508;42.578;23.416;2024-03-02T01:54:38;93070.25;;;9.28;89.13
33151;BME280;19508;42.578;23.416;2024-03-02T01:57:03;93069.72;;;9.26;89.04
33151;BME280;19508;42.578;23.416;2024-03-02T01:59:29;93064.63;;;9.24;88.97
33151;BME280;19508;42.578;23.416;2024-03-02T02:01:54;93061.34;;;9.12;89.09
33151;BME280;19508;42.578;23.416;2024-03-02T02:04:20;93067.84;;;9.26;88.79
33151;BME280;19508;42.578;23.416;2024-03-02T02:06:52;93066.19;;;9.15;89.50
33151;BME280;19508;42.578;23.416;2024-03-02T02:09:17;93065.88;;;9.01;90.08
33151;BME280;19508;42.578;23.416;2024-03-02T02:11:43;93061.56;;;9.05;90.56
33151;BME280;19508;42.578;23.416;2024-03-02T02:14:09;93063.50;;;9.20;90.12
33151;BME280;19508;42.578;23.416;2024-03-02T02:16:34;93064.63;;;9.24;90.25
33151;BME280;19508;42.578;23.416;2024-03-02T02:18:59;93053.56;;;9.21;89.45
33151;BME280;19508;42.578;23.416;2024-03-02T02:21:25;93066.78;;;9.32;89.10
33151;BME280;19508;42.578;23.416;2024-03-02T02:23:51;93059.81;;;9.37;88.83
33151;BME280;19508;42.578;23.416;2024-03-02T02:26:16;93054.97;;;9.33;88.97
33151;BME280;19508;42.578;23.416;2024-03-02T02:28:42;93053.56;;;9.21;88.77
33151;BME280;19508;42.578;23.416;2024-03-02T02:31:13;93055.47;;;9.15;89.04
33151;BME280;19508;42.578;23.416;2024-03-02T02:33:42;93054.94;;;9.28;89.05
33151;BME280;19508;42.578;23.416;2024-03-02T02:36:08;93048.50;;;9.24;89.35
33151;BME280;19508;42.578;23.416;2024-03-02T02:38:38;93066.19;;;9.15;89.92
33151;BME280;19508;42.578;23.416;2024-03-02T02:41:05;93053.88;;;9.24;89.98
33151;BME280;19508;42.578;23.416;2024-03-02T02:43:31;93061.91;;;9.19;90.65
33151;BME280;19508;42.578;23.416;2024-03-02T02:45:56;93049.53;;;9.08;90.80
33151;BME280;19508;42.578;23.416;2024-03-02T02:48:21;93056.53;;;9.19;90.20
33151;BME280;19508;42.578;23.416;2024-03-02T02:50:47;93070.03;;;9.35;89.82
33151;BME280;19508;42.578;23.416;2024-03-02T02:53:13;93057.59;;;9.18;90.27
33151;BME280;19508;42.578;23.416;2024-03-02T02:55:39;93064.63;;;9.24;90.48
33151;BME280;19508;42.578;23.416;2024-03-02T02:58:09;93067.81;;;9.21;90.48
33151;BME280;19508;42.578;23.416;2024-03-02T03:00:34;93059.75;;;9.21;90.53
33151;BME280;19508;42.578;23.416;2024-03-02T03:03:02;93052.78;;;9.20;90.73
33151;BME280;19508;42.578;23.416;2024-03-02T03:05:27;93058.44;;;9.24;90.26
33151;BME280;19508;42.578;23.416;2024-03-02T03:07:53;93043.13;;;9.24;89.85
33151;BME280;19508;42.578;23.416;2024-03-02T03:10:18;93055.47;;;9.30;89.76
33151;BME280;19508;42.578;23.416;2024-03-02T03:12:46;93047.44;;;9.30;89.28
33151;BME280;19508;42.578;23.416;2024-03-02T03:15:11;93053.88;;;9.24;89.74
33151;BME280;19508;42.578;23.416;2024-03-02T03:17:37;93058.13;;;9.20;90.31
33151;BME280;19508;42.578;23.416;2024-03-02T03:20:03;93060.84;;;9.25;89.76
33151;BME280;19508;42.578;23.416;2024-03-02T03:22:30;93062.72;;;9.15;89.83
33151;BME280;19508;42.578;23.416;2024-03-02T03:24:56;93053.31;;;9.17;89.86
33151;BME280;19508;42.578;23.416;2024-03-02T03:27:22;93051.69;;;9.16;89.81
33151;BME280;19508;42.578;23.416;2024-03-02T03:29:47;93063.00;;;9.23;90.23
33151;BME280;19508;42.578;23.416;2024-03-02T03:32:12;93059.75;;;9.21;89.80
33151;BME280;19508;42.578;23.416;2024-03-02T03:34:38;93058.44;;;9.24;89.55
33151;BME280;19508;42.578;23.416;2024-03-02T03:37:04;93062.47;;;9.26;89.68
33151;BME280;19508;42.578;23.416;2024-03-02T03:39:29;93057.91;;;9.27;89.60
33151;BME280;19508;42.578;23.416;2024-03-02T03:41:54;93067.31;;;9.29;89.74
33151;BME280;19508;42.578;23.416;2024-03-02T03:44:20;93065.19;;;9.31;89.38
33151;BME280;19508;42.578;23.416;2024-03-02T03:46:45;93059.25;;;9.29;89.28
33151;BME280;19508;42.578;23.416;2024-03-02T03:49:11;93064.09;;;9.38;89.03
33151;BME280;19508;42.578;23.416;2024-03-02T03:51:42;93043.69;;;9.37;88.22
33151;BME280;19508;42.578;23.416;2024-03-02T03:54:08;93058.75;;;9.38;88.20
33151;BME280;19508;42.578;23.416;2024-03-02T03:56:33;93058.19;;;9.30;88.55
33151;BME280;19508;42.578;23.416;2024-03-02T03:58:59;93055.75;;;9.29;88.71
33151;BME280;19508;42.578;23.416;2024-03-02T04:01:25;93062.50;;;9.31;88.80
33151;BME280;19508;42.578;23.416;2024-03-02T04:03:50;93065.19;;;9.31;88.94
33151;BME280;19508;42.578;23.416;2024-03-02T04:06:15;93060.28;;;9.18;89.74
33151;BME280;19508;42.578;23.416;2024-03-02T04:08:42;93069.47;;;9.27;89.24
33151;BME280;19508;42.578;23.416;2024-03-02T04:11:08;93067.56;;;9.23;89.22
33151;BME280;19508;42.578;23.416;2024-03-02T04:13:33;93065.91;;;9.12;89.71
33151;BME280;19508;42.578;23.416;2024-03-02T04:15:59;93057.56;;;9.13;89.62
33151;BME280;19508;42.578;23.416;2024-03-02T04:18:24;93058.09;;;9.10;89.80
33151;BME280;19508;42.578;23.416;2024-03-02T04:20:50;93063.53;;;9.25;88.58
33151;BME280;19508;42.578;23.416;2024-03-02T04:23:15;93056.00;;;9.17;88.57
33151;BME280;19508;42.578;23.416;2024-03-02T04:25:41;93073.19;;;9.21;88.80
33151;BME280;19508;42.578;23.416;2024-03-02T04:28:06;93061.78;;;8.89;89.28
33151;BME280;19508;42.578;23.416;2024-03-02T04:30:32;93066.13;;;9.00;89.31
33151;BME280;19508;42.578;23.416;2024-03-02T04:32:57;93077.94;;;9.04;89.39
33151;BME280;19508;42.578;23.416;2024-03-02T04:35:23;93067.75;;;9.01;89.42
33151;BME280;19508;42.578;23.416;2024-03-02T04:37:48;93077.38;;;8.92;89.97
33151;BME280;19508;42.578;23.416;2024-03-02T04:40:14;93072.34;;;9.11;89.14
33151;BME280;19508;42.578;23.416;2024-03-02T04:42:39;93068.84;;;9.10;89.02
33151;BME280;19508;42.578;23.416;2024-03-02T04:45:05;93077.44;;;9.12;88.87
33151;BME280;19508;42.578;23.416;2024-03-02T04:47:31;93076.94;;;9.15;88.69
33151;BME280;19508;42.578;23.416;2024-03-02T04:49:56;93077.41;;;9.02;89.72
33151;BME280;19508;42.578;23.416;2024-03-02T04:52:22;93065.03;;;8.96;89.25
33151;BME280;19508;42.578;23.416;2024-03-02T04:54:47;93076.84;;;8.95;89.17
33151;BME280;19508;42.578;23.416;2024-03-02T04:57:31;93057.94;;;8.74;90.15
33151;BME280;19508;42.578;23.416;2024-03-02T05:00:08;93073.56;;;8.83;90.94
33151;BME280;19508;42.578;23.416;2024-03-02T05:02:34;93067.66;;;8.81;90.55
33151;BME280;19508;42.578;23.416;2024-03-02T05:05:00;93071.88;;;8.71;91.45
33151;BME280;19508;42.578;23.416;2024-03-02T05:07:25;93061.72;;;8.73;91.13
33151;BME280;19508;42.578;23.416;2024-03-02T05:09:51;93081.56;;;8.77;91.09
33151;BME280;19508;42.578;23.416;2024-03-02T05:12:17;93072.41;;;8.68;92.34
33151;BME280;19508;42.578;23.416;2024-03-02T05:15:14;93055.22;;;8.64;92.25
33151;BME280;19508;42.578;23.416;2024-03-02T05:17:41;93074.00;;;8.69;92.70
33151;BME280;19508;42.578;23.416;2024-03-02T05:20:09;93081.56;;;8.77;92.72
33151;BME280;19508;42.578;23.416;2024-03-02T05:22:36;93080.25;;;8.80;92.42
33151;BME280;19508;42.578;23.416;2024-03-02T05:25:02;93088.06;;;8.87;92.21
33151;BME280;19508;42.578;23.416;2024-03-02T05:27:27;93085.38;;;8.87;91.88
33151;BME280;19508;42.578;23.416;2024-03-02T05:29:53;93092.13;;;8.94;91.49
33151;BME280;19508;42.578;23.416;2024-03-02T05:32:18;93077.31;;;8.87;91.75
33151;BME280;19508;42.578;23.416;2024-03-02T05:34:44;93089.19;;;8.91;91.83
33151;BME280;19508;42.578;23.416;2024-03-02T05:37:09;93087.81;;;8.88;91.30
33151;BME280;19508;42.578;23.416;2024-03-02T05:39:35;93091.88;;;8.91;91.66
33151;BME280;19508;42.578;23.416;2024-03-02T05:42:00;93107.75;;;8.97;92.16
33151;BME280;19508;42.578;23.416;2024-03-02T05:44:26;93117.16;;;9.00;92.19
33151;BME280;19508;42.578;23.416;2024-03-02T05:46:51;93112.28;;;8.92;93.42
33151;BME280;19508;42.578;23.416;2024-03-02T05:49:17;93118.75;;;9.01;93.07
33151;BME280;19508;42.578;23.416;2024-03-02T05:51:43;93110.16;;;8.99;92.96
33151;BME280;19508;42.578;23.416;2024-03-02T05:54:08;93106.38;;;8.95;92.97
33151;BME280;19508;42.578;23.416;2024-03-02T05:56:33;93117.41;;;8.98;92.89
33151;BME280;19508;42.578;23.416;2024-03-02T05:58:59;93123.81;;;8.92;92.84
33151;BME280;19508;42.578;23.416;2024-03-02T06:04:10;93120.59;;;8.90;93.08
33151;BME280;19508;42.578;23.416;2024-03-02T06:06:36;93114.41;;;8.90;93.26
33151;BME280;19508;42.578;23.416;2024-03-02T06:09:02;93113.13;;;8.97;92.82
33151;BME280;19508;42.578;23.416;2024-03-02T06:11:30;93117.16;;;9.00;92.29
33151;BME280;19508;42.578;23.416;2024-03-02T06:13:56;93129.22;;;8.97;92.56
33151;BME280;19508;42.578;23.416;2024-03-02T06:16:21;93119.28;;;8.98;93.19
33151;BME280;19508;42.578;23.416;2024-03-02T06:18:46;93119.31;;;9.03;92.64
33151;BME280;19508;42.578;23.416;2024-03-02T06:21:12;93115.53;;;8.99;92.94
33151;BME280;19508;42.578;23.416;2024-03-02T06:23:37;93114.72;;;8.98;92.73
33151;BME280;19508;42.578;23.416;2024-03-02T06:26:03;93115.75;;;8.92;93.05
33151;BME280;19508;42.578;23.416;2024-03-02T06:28:28;93126.78;;;8.96;93.12
33151;BME280;19508;42.578;23.416;2024-03-02T06:30:54;93116.84;;;8.96;93.53
33151;BME280;19508;42.578;23.416;2024-03-02T06:33:19;93114.72;;;8.98;93.40
33151;BME280;19508;42.578;23.416;2024-03-02T06:35:45;93133.25;;;9.00;93.83
33151;BME280;19508;42.578;23.416;2024-03-02T06:38:10;93131.13;;;9.02;93.91
33151;BME280;19508;42.578;23.416;2024-03-02T06:40:36;93127.41;;;9.08;94.04
33151;BME280;19508;42.578;23.416;2024-03-02T06:43:03;93127.94;;;9.10;93.91
33151;BME280;19508;42.578;23.416;2024-03-02T06:45:29;93140.34;;;9.21;94.10
33151;BME280;19508;42.578;23.416;2024-03-02T06:47:55;93137.09;;;9.19;93.64
33151;BME280;19508;42.578;23.416;2024-03-02T06:50:21;93133.88;;;9.17;93.84
33151;BME280;19508;42.578;23.416;2024-03-02T06:52:47;93133.34;;;9.20;93.17
33151;BME280;19508;42.578;23.416;2024-03-02T06:55:12;93138.25;;;9.33;92.20
33151;BME280;19508;42.578;23.416;2024-03-02T06:57:38;93138.22;;;9.28;92.51
33151;BME280;19508;42.578;23.416;2024-03-02T07:00:04;93133.78;;;9.02;93.02
33151;BME280;19508;42.578;23.416;2024-03-02T07:02:30;93144.63;;;9.17;93.25
33151;BME280;19508;42.578;23.416;2024-03-02T07:04:56;93122.09;;;9.23;92.34
33151;BME280;19508;42.578;23.416;2024-03-02T07:07:21;93139.28;;;9.27;92.03
33151;BME280;19508;42.578;23.416;2024-03-02T07:09:47;93132.34;;;9.37;92.15
33151;BME280;19508;42.578;23.416;2024-03-02T07:12:13;93136.13;;;9.36;92.24
33151;BME280;19508;42.578;23.416;2024-03-02T07:14:39;93150.44;;;9.51;91.97
33151;BME280;19508;42.578;23.416;2024-03-02T07:17:42;93140.44;;;9.47;92.14
33151;BME280;19508;42.578;23.416;2024-03-02T07:20:08;93147.09;;;9.29;92.45
33151;BME280;19508;42.578;23.416;2024-03-02T07:22:34;93149.50;;;9.25;92.80
33151;BME280;19508;42.578;23.416;2024-03-02T07:24:59;93153.81;;;9.26;92.87
33151;BME280;19508;42.578;23.416;2024-03-02T07:27:24;93147.31;;;9.17;93.41
33151;BME280;19508;42.578;23.416;2024-03-02T07:29:50;93150.34;;;9.36;93.03
33151;BME280;19508;42.578;23.416;2024-03-02T07:32:15;93148.78;;;9.40;92.61
33151;BME280;19508;42.578;23.416;2024-03-02T07:34:41;93158.72;;;9.45;92.15
33151;BME280;19508;42.578;23.416;2024-03-02T07:37:06;93158.19;;;9.48;92.39
33151;BME280;19508;42.578;23.416;2024-03-02T07:39:32;93152.84;;;9.53;92.73
33151;BME280;19508;42.578;23.416;2024-03-02T07:41:57;93160.41;;;9.61;92.09
33151;BME280;19508;42.578;23.416;2024-03-02T07:44:23;93160.66;;;9.59;91.76
33151;BME280;19508;42.578;23.416;2024-03-02T07:46:48;93159.28;;;9.57;92.28
33151;BME280;19508;42.578;23.416;2024-03-02T07:49:20;93161.47;;;9.65;92.15
33151;BME280;19508;42.578;23.416;2024-03-02T07:51:45;93166.63;;;9.67;91.34
33151;BME280;19508;42.578;23.416;2024-03-02T07:54:10;93157.22;;;9.69;91.54
33151;BME280;19508;42.578;23.416;2024-03-02T07:56:36;93161.81;;;9.79;91.49
33151;BME280;19508;42.578;23.416;2024-03-02T07:59:03;93171.25;;;9.86;91.30
33151;BME280;19508;42.578;23.416;2024-03-02T08:01:32;93168.56;;;9.97;91.23
33151;BME280;19508;42.578;23.416;2024-03-02T08:03:58;93171.78;;;9.99;90.62
33151;BME280;19508;42.578;23.416;2024-03-02T08:06:27;93170.19;;;9.98;90.39
33151;BME280;19508;42.578;23.416;2024-03-02T08:08:54;93171.81;;;10.04;89.92
33151;BME280;19508;42.578;23.416;2024-03-02T08:11:20;93173.97;;;10.02;90.39
33151;BME280;19508;42.578;23.416;2024-03-02T08:13:46;93177.22;;;10.09;90.12
33151;BME280;19508;42.578;23.416;2024-03-02T08:16:11;93183.44;;;10.20;89.52
33151;BME280;19508;42.578;23.416;2024-03-02T08:18:37;93184.50;;;10.18;88.14
33151;BME280;19508;42.578;23.416;2024-03-02T08:21:02;93181.56;;;10.25;88.49
33151;BME280;19508;42.578;23.416;2024-03-02T08:23:28;93182.94;;;10.33;88.21
33151;BME280;19508;42.578;23.416;2024-03-02T08:25:54;93172.19;;;10.43;88.20
33151;BME280;19508;42.578;23.416;2024-03-02T08:28:19;93176.78;;;10.53;88.24
33151;BME280;19508;42.578;23.416;2024-03-02T08:30:45;93190.75;;;10.65;87.28
33151;BME280;19508;42.578;23.416;2024-03-02T08:33:13;93183.22;;;10.67;87.86
33151;BME280;19508;42.578;23.416;2024-03-02T08:35:39;93168.41;;;10.39;87.60
33151;BME280;19508;42.578;23.416;2024-03-02T08:38:04;93187.53;;;10.53;87.52
33151;BME280;19508;42.578;23.416;2024-03-02T08:40:30;93188.25;;;10.12;88.21
33151;BME280;19508;42.578;23.416;2024-03-02T08:42:56;93174.00;;;10.17;88.79
33151;BME280;19508;42.578;23.416;2024-03-02T08:45:21;93178.63;;;10.27;87.92
33151;BME280;19508;42.578;23.416;2024-03-02T08:47:47;93180.50;;;10.31;87.32
33151;BME280;19508;42.578;23.416;2024-03-02T08:50:12;93182.13;;;10.37;86.58
33151;BME280;19508;42.578;23.416;2024-03-02T08:52:38;93176.22;;;10.66;86.37
33151;BME280;19508;42.578;23.416;2024-03-02T08:55:04;93175.69;;;10.89;85.37
33151;BME280;19508;42.578;23.416;2024-03-02T08:57:30;93171.09;;;10.85;85.13
33151;BME280;19508;42.578;23.416;2024-03-02T08:59:55;93172.44;;;11.08;84.16
33151;BME280;19508;42.578;23.416;2024-03-02T09:02:21;93173.75;;;11.20;83.38
33151;BME280;19508;42.578;23.416;2024-03-02T09:04:46;93183.19;;;11.23;83.07
33151;BME280;19508;42.578;23.416;2024-03-02T09:07:11;93173.47;;;11.32;82.35
33151;BME280;19508;42.578;23.416;2024-03-02T09:09:37;93175.34;;;11.26;82.50
33151;BME280;19508;42.578;23.416;2024-03-02T09:12:05;93167.03;;;11.08;83.74
33151;BME280;19508;42.578;23.416;2024-03-02T09:14:30;93171.28;;;11.39;83.47
33151;BME280;19508;42.578;23.416;2024-03-02T09:16:56;93182.03;;;11.44;82.65
33151;BME280;19508;42.578;23.416;2024-03-02T09:19:21;93192.72;;;11.75;82.98
33151;BME280;19508;42.578;23.416;2024-03-02T09:21:46;93181.41;;;11.88;81.65
33151;BME280;19508;42.578;23.416;2024-03-02T09:24:12;93178.72;;;11.68;81.83
33151;BME280;19508;42.578;23.416;2024-03-02T09:26:37;93191.56;;;12.01;80.79
33151;BME280;19508;42.578;23.416;2024-03-02T09:29:03;93192.13;;;11.98;79.53
33151;BME280;19508;42.578;23.416;2024-03-02T09:31:28;93186.81;;;11.68;80.24
33151;BME280;19508;42.578;23.416;2024-03-02T09:33:54;93191.06;;;11.94;80.16
33151;BME280;19508;42.578;23.416;2024-03-02T09:36:21;93187.03;;;11.92;80.29
33151;BME280;19508;42.578;23.416;2024-03-02T09:38:47;93184.97;;;11.58;80.51
33151;BME280;19508;42.578;23.416;2024-03-02T09:41:13;93189.13;;;11.05;81.83
33151;BME280;19508;42.578;23.416;2024-03-02T09:43:39;93182.13;;;11.14;82.34
33151;BME280;19508;42.578;23.416;2024-03-02T09:46:05;93182.97;;;10.89;81.99
33151;BME280;19508;42.578;23.416;2024-03-02T09:48:31;93187.00;;;10.76;83.78
33151;BME280;19508;42.578;23.416;2024-03-02T09:50:57;93188.06;;;10.80;84.09
33151;BME280;19508;42.578;23.416;2024-03-02T09:53:23;93200.72;;;10.74;84.44
33151;BME280;19508;42.578;23.416;2024-03-02T09:55:49;93194.00;;;10.77;84.81
33151;BME280;19508;42.578;23.416;2024-03-02T09:58:14;93197.50;;;10.67;84.01
33151;BME280;19508;42.578;23.416;2024-03-02T10:00:40;93189.41;;;11.08;83.61
33151;BME280;19508;42.578;23.416;2024-03-02T10:03:11;93189.88;;;11.46;83.69
33151;BME280;19508;42.578;23.416;2024-03-02T10:05:37;93197.66;;;11.57;82.43
33151;BME280;19508;42.578;23.416;2024-03-02T10:08:03;93193.81;;;11.74;81.65
33151;BME280;19508;42.578;23.416;2024-03-02T10:10:36;93194.78;;;12.03;80.59
33151;BME280;19508;42.578;23.416;2024-03-02T10:13:06;93197.53;;;11.98;79.41
33151;BME280;19508;42.578;23.416;2024-03-02T10:15:32;93193.59;;;11.65;80.94
33151;BME280;19508;42.578;23.416;2024-03-02T10:17:57;93193.03;;;11.68;80.87
33151;BME280;19508;42.578;23.416;2024-03-02T10:20:24;93190.63;;;11.62;80.59
33151;BME280;19508;42.578;23.416;2024-03-02T10:22:50;93186.78;;;11.78;80.79
33151;BME280;19508;42.578;23.416;2024-03-02T10:25:32;93188.38;;;11.94;81.06
33151;BME280;19508;42.578;23.416;2024-03-02T10:27:58;93190.06;;;11.80;80.13
33151;BME280;19508;42.578;23.416;2024-03-02T10:30:27;93190.00;;;11.90;79.47
33151;BME280;19508;42.578;23.416;2024-03-02T10:32:56;93190.19;;;12.04;80.62
33151;BME280;19508;42.578;23.416;2024-03-02T10:35:26;93192.06;;;12.08;81.16
33151;BME280;19508;42.578;23.416;2024-03-02T10:37:55;93181.72;;;12.31;80.27
33151;BME280;19508;42.578;23.416;2024-03-02T10:40:23;93188.44;;;12.33;79.36
33151;BME280;19508;42.578;23.416;2024-03-02T10:42:52;93193.41;;;12.11;78.67
33151;BME280;19508;42.578;23.416;2024-03-02T10:45:19;93180.44;;;12.13;79.19
33151;BME280;19508;42.578;23.416;2024-03-02T10:47:47;93184.81;;;12.04;79.19
33151;BME280;19508;42.578;23.416;2024-03-02T10:50:12;93172.22;;;11.79;80.09
33151;BME280;19508;42.578;23.416;2024-03-02T10:52:38;93187.31;;;11.85;79.43
33151;BME280;19508;42.578;23.416;2024-03-02T10:55:38;93180.03;;;11.91;78.72
33151;BME280;19508;42.578;23.416;2024-03-02T10:58:04;93161.88;;;11.32;83.08
33151;BME280;19508;42.578;23.416;2024-03-02T11:00:33;93170.97;;;11.51;83.79
33151;BME280;19508;42.578;23.416;2024-03-02T11:03:06;93163.25;;;11.14;86.69
33151;BME280;19508;42.578;23.416;2024-03-02T11:05:36;93163.50;;;11.17;88.62
33151;BME280;19508;42.578;23.416;2024-03-02T11:08:08;93170.56;;;10.83;89.11
33151;BME280;19508;42.578;23.416;2024-03-02T11:10:37;93166.53;;;10.90;90.24
33151;BME280;19508;42.578;23.416;2024-03-02T11:13:09;93173.53;;;10.91;89.92
33151;BME280;19508;42.578;23.416;2024-03-02T11:15:36;93169.78;;;10.72;90.74
33151;BME280;19508;42.578;23.416;2024-03-02T11:18:04;93161.69;;;10.77;91.06
33151;BME280;19508;42.578;23.416;2024-03-02T11:20:39;93161.69;;;10.72;90.42
33151;BME280;19508;42.578;23.416;2024-03-02T11:23:07;93156.84;;;10.59;90.96
33151;BME280;19508;42.578;23.416;2024-03-02T11:25:33;93161.69;;;10.72;91.13
33151;BME280;19508;42.578;23.416;2024-03-02T11:28:03;93166.53;;;10.90;91.58
33151;BME280;19508;42.578;23.416;2024-03-02T11:32:58;93164.38;;;11.02;90.49
33151;BME280;19508;42.578;23.416;2024-03-02T11:35:25;93161.66;;;10.97;90.79
33151;BME280;19508;42.578;23.416;2024-03-02T11:37:51;93156.84;;;10.94;90.09
33151;BME280;19508;42.578;23.416;2024-03-02T11:40:26;93148.75;;;10.84;89.87
33151;BME280;19508;42.578;23.416;2024-03-02T11:42:52;93149.31;;;10.66;90.48
33151;BME280;19508;42.578;23.416;2024-03-02T11:45:22;93153.88;;;10.86;90.61
33151;BME280;19508;42.578;23.416;2024-03-02T11:47:53;93165.44;;;10.81;90.44
33151;BME280;19508;42.578;23.416;2024-03-02T11:50:29;93157.91;;;10.73;90.84
33151;BME280;19508;42.578;23.416;2024-03-02T11:52:56;93155.22;;;10.73;90.75
33151;BME280;19508;42.578;23.416;2024-03-02T11:55:23;93165.44;;;10.66;91.54
33151;BME280;19508;42.578;23.416;2024-03-02T11:57:52;93161.44;;;10.53;91.73
33151;BME280;19508;42.578;23.416;2024-03-02T12:00:18;93164.41;;;10.52;92.19
33151;BME280;19508;42.578;23.416;2024-03-02T12:02:46;93149.84;;;10.42;92.51
33151;BME280;19508;42.578;23.416;2024-03-02T12:05:17;93173.53;;;10.51;92.64
33151;BME280;19508;42.578;23.416;2024-03-02T12:07:44;93171.91;;;10.50;92.44
33151;BME280;19508;42.578;23.416;2024-03-02T12:10:09;93165.41;;;10.20;93.50
33151;BME280;19508;42.578;23.416;2024-03-02T12:12:35;93148.22;;;10.31;93.31
33151;BME280;19508;42.578;23.416;2024-03-02T12:15:02;93171.38;;;10.53;93.28
33151;BME280;19508;42.578;23.416;2024-03-02T12:17:29;93178.91;;;10.51;92.91
33151;BME280;19508;42.578;23.416;2024-03-02T12:19:54;93164.38;;;10.41;92.93
33151;BME280;19508;42.578;23.416;2024-03-02T12:22:21;93175.69;;;10.59;92.63
33151;BME280;19508;42.578;23.416;2024-03-02T12:24:46;93155.25;;;10.42;92.65
33151;BME280;19508;42.578;23.416;2024-03-02T12:27:13;93162.78;;;10.45;92.92
33151;BME280;19508;42.578;23.416;2024-03-02T12:29:40;93170.31;;;10.43;93.29
33151;BME280;19508;42.578;23.416;2024-03-02T12:32:05;93175.69;;;10.38;93.35
33151;BME280;19508;42.578;23.416;2024-03-02T12:34:31;93169.47;;;10.28;93.76
33151;BME280;19508;42.578;23.416;2024-03-02T12:36:57;93167.63;;;10.43;93.44
33151;BME280;19508;42.578;23.416;2024-03-02T12:39:23;93162.78;;;10.45;93.31
33151;BME280;19508;42.578;23.416;2024-03-02T12:41:49;93161.94;;;10.50;92.85
33151;BME280;19508;42.578;23.416;2024-03-02T12:44:16;93164.91;;;10.38;92.70
33151;BME280;19508;42.578;23.416;2024-03-02T12:46:43;93170.31;;;10.69;92.36
33151;BME280;19508;42.578;23.416;2024-03-02T12:49:09;93159.53;;;10.69;92.99
33151;BME280;19508;42.578;23.416;2024-03-02T12:51:36;93169.22;;;10.80;91.92
33151;BME280;19508;42.578;23.416;2024-03-02T12:54:02;93174.88;;;10.89;91.10
33151;BME280;19508;42.578;23.416;2024-03-02T12:56:29;93170.31;;;10.94;90.21
33151;BME280;19508;42.578;23.416;2024-03-02T12:59:04;93170.25;;;11.10;89.98
33151;BME280;19508;42.578;23.416;2024-03-02T13:01:34;93177.78;;;11.18;89.37
33151;BME280;19508;42.578;23.416;2024-03-02T13:04:00;93178.63;;;11.13;88.03